Time;durP1;ratioP1;P1;durP2;ratioP2;P2;SDS_P1;SDS_P2;PMS_P1;PMS_P2;Temp;Humidity;BMP_temperature;BMP_pressure;BME280_temperature;BME280_humidity;BME280_pressure;Samples;Min_cycle;Max_cycle;Signal;HPM_P1;HPM_P2
2022/10/01 00:04:28;;;;;;;7.70;3.40;;;;;;;10.77;76.49;100306.75;10343082;28;20615;-77
2022/10/01 00:09:33;;;;;;;7.15;3.03;;;;;;;10.80;76.32;100290.19;10339157;28;20156;-79
2022/10/01 00:14:37;;;;;;;8.82;3.55;;;;;;;10.81;76.40;100276.25;10356483;28;20046;-77
2022/10/01 00:19:39;;;;;;;7.40;3.47;;;;;;;10.85;76.16;100282.38;10332126;28;20078;-77
2022/10/01 00:24:41;;;;;;;8.32;3.10;;;;;;;10.87;76.28;100270.16;10357865;28;20116;-76
2022/10/01 00:29:44;;;;;;;4.38;2.67;;;;;;;10.88;76.38;100261.44;10354048;28;20049;-77
2022/10/01 00:34:45;;;;;;;8.05;3.30;;;;;;;10.89;76.35;100257.97;10353733;28;20100;-78
2022/10/01 00:39:47;;;;;;;5.85;3.08;;;;;;;10.87;76.23;100254.44;10335739;28;20084;-77
2022/10/01 00:44:50;;;;;;;8.00;3.20;;;;;;;10.90;76.31;100252.75;10354166;28;20049;-77
2022/10/01 00:50:06;;;;;;;5.53;2.83;;;;;;;10.90;76.50;100236.13;10343368;28;20057;-77
2022/10/01 00:55:22;;;;;;;5.35;2.88;;;;;;;10.92;76.34;100230.03;10343139;28;20633;-77
2022/10/01 01:00:24;;;;;;;4.03;2.40;;;;;;;10.99;76.28;100215.25;10359475;28;20096;-77
2022/10/01 01:05:25;;;;;;;5.70;3.03;;;;;;;10.98;76.35;100216.13;10336379;28;20528;-77
2022/10/01 01:10:36;;;;;;;7.38;3.20;;;;;;;10.98;76.35;100200.41;10361806;28;20464;-77
2022/10/01 01:15:59;;;;;;;5.55;2.90;;;;;;;11.04;76.59;100195.19;10345349;28;20037;-77
2022/10/01 01:21:12;;;;;;;6.35;3.15;;;;;;;11.10;76.29;100202.22;10342934;28;20054;-76
2022/10/01 01:26:26;;;;;;;8.98;2.97;;;;;;;11.11;76.01;100191.75;10343125;28;20054;-77
2022/10/01 01:31:34;;;;;;;5.82;2.65;;;;;;;11.16;76.38;100189.16;10356994;28;20050;-77
2022/10/01 01:36:42;;;;;;;6.10;2.70;;;;;;;11.10;77.04;100179.50;10360262;28;20061;-79
2022/10/01 01:41:50;;;;;;;7.53;3.38;;;;;;;10.95;77.74;100168.94;10354941;28;20066;-79
2022/10/01 01:46:55;;;;;;;7.78;3.55;;;;;;;10.83;78.69;100154.03;10342370;28;20073;-78
2022/10/01 01:52:12;;;;;;;8.95;3.60;;;;;;;10.79;79.48;100149.63;10340763;28;20050;-79
2022/10/01 01:57:17;;;;;;;7.32;3.75;;;;;;;10.66;80.47;100132.09;10369115;28;20068;-81
2022/10/01 02:02:25;;;;;;;20.15;3.78;;;;;;;10.60;81.24;100119.88;10357009;28;20046;-81
2022/10/01 02:07:52;;;;;;;9.15;4.00;;;;;;;10.54;81.74;100096.28;10357097;28;20532;-80
2022/10/01 02:13:31;;;;;;;7.93;3.90;;;;;;;10.46;82.50;100096.19;10376854;28;20070;-80
2022/10/01 02:18:55;;;;;;;7.90;4.13;;;;;;;10.34;83.09;100080.41;10375291;28;20061;-82
2022/10/01 02:24:01;;;;;;;8.82;3.70;;;;;;;10.25;84.01;100055.94;10340570;28;20042;-82
2022/10/01 02:29:08;;;;;;;8.50;4.60;;;;;;;10.19;84.37;100048.03;10363678;28;20060;-80
2022/10/01 02:34:14;;;;;;;8.85;4.55;;;;;;;10.08;85.09;100036.59;10360365;28;20128;-80
2022/10/01 02:39:22;;;;;;;9.68;4.30;;;;;;;9.98;85.83;100026.94;10356577;28;20054;-80
2022/10/01 02:44:36;;;;;;;11.30;4.88;;;;;;;9.99;86.47;100024.34;10348261;28;20057;-80
2022/10/01 02:49:40;;;;;;;11.20;4.45;;;;;;;9.97;86.69;100001.63;10357105;28;20054;-84
2022/10/01 02:54:45;;;;;;;10.85;4.50;;;;;;;9.93;87.42;99994.66;10330113;28;20050;-81
2022/10/01 02:59:48;;;;;;;7.45;3.55;;;;;;;9.85;87.81;99998.09;10328065;28;20465;-84
2022/10/01 03:04:50;;;;;;;7.93;4.38;;;;;;;9.79;88.23;99994.53;10351080;28;20050;-82
2022/10/01 03:09:51;;;;;;;7.97;4.72;;;;;;;9.72;88.69;99970.97;10360781;28;20457;-82
2022/10/01 03:14:53;;;;;;;8.90;4.75;;;;;;;9.66;89.03;99954.38;10359487;28;20060;-80
2022/10/01 03:19:55;;;;;;;9.50;4.97;;;;;;;9.58;89.44;99948.19;10368628;28;20054;-81
2022/10/01 03:24:57;;;;;;;11.05;5.40;;;;;;;9.58;89.91;99915.13;10351381;28;20041;-82
2022/10/01 03:29:58;;;;;;;11.05;5.07;;;;;;;9.48;90.50;99887.16;10369736;28;20608;-81
2022/10/01 03:35:00;;;;;;;8.32;4.57;;;;;;;9.45;90.66;99877.56;10344070;28;20132;-80
2022/10/01 03:40:02;;;;;;;11.48;6.22;;;;;;;9.36;90.76;99860.06;10368958;28;20081;-82
2022/10/01 03:45:04;;;;;;;12.60;5.45;;;;;;;9.31;91.06;99850.47;10365285;28;20140;-82
2022/10/01 03:50:06;;;;;;;11.25;4.88;;;;;;;9.27;91.53;99851.31;10367657;28;20056;-80
2022/10/01 03:55:08;;;;;;;10.27;5.78;;;;;;;9.20;91.70;99837.31;10368531;28;20053;-81
2022/10/01 04:00:10;;;;;;;8.88;4.85;;;;;;;9.18;92.10;99833.81;10345167;28;20054;-80
2022/10/01 04:05:12;;;;;;;11.60;5.65;;;;;;;9.18;92.21;99836.44;10346856;28;20068;-81
2022/10/01 04:10:14;;;;;;;8.65;4.32;;;;;;;9.22;92.51;99845.16;10364265;28;20062;-79
2022/10/01 04:15:16;;;;;;;12.68;5.32;;;;;;;9.23;92.78;99845.16;10362029;28;20058;-80
2022/10/01 04:20:17;;;;;;;8.52;4.05;;;;;;;9.20;92.93;99848.66;10365899;28;20064;-82
2022/10/01 04:25:19;;;;;;;8.57;3.90;;;;;;;9.21;93.37;99852.13;10356261;28;20050;-81
2022/10/01 04:30:21;;;;;;;7.78;3.90;;;;;;;9.23;93.47;99837.31;10368164;28;20077;-81
2022/10/01 04:35:24;;;;;;;7.95;4.03;;;;;;;9.31;93.58;99809.53;10372501;28;20050;-80
2022/10/01 04:40:26;;;;;;;8.48;3.90;;;;;;;9.36;93.81;99813.03;10366148;28;20472;-80
2022/10/01 04:45:27;;;;;;;10.07;4.65;;;;;;;9.35;93.82;99808.69;10369792;28;20125;-82
2022/10/01 04:50:29;;;;;;;8.13;4.35;;;;;;;9.38;93.90;99810.44;10367928;28;20062;-83
2022/10/01 04:55:31;;;;;;;8.85;3.90;;;;;;;9.38;93.88;99802.59;10335099;28;20143;-82
2022/10/01 05:00:32;;;;;;;8.80;4.82;;;;;;;9.41;93.99;99797.38;10353606;28;20545;-81
2022/10/01 05:05:34;;;;;;;7.82;4.43;;;;;;;9.45;94.10;99800.91;10371056;28;20045;-80
2022/10/01 05:10:36;;;;;;;9.05;4.32;;;;;;;9.41;94.24;99786.06;10379501;28;20489;-81
2022/10/01 05:15:37;;;;;;;9.15;4.45;;;;;;;9.42;94.25;99769.53;10383428;28;20053;-81
2022/10/01 05:20:39;;;;;;;8.57;4.18;;;;;;;9.40;94.36;99763.41;10354109;28;20084;-83
2022/10/01 05:25:41;;;;;;;13.35;3.85;;;;;;;9.42;94.60;99761.69;10369797;28;20395;-83
2022/10/01 05:30:43;;;;;;;8.63;3.70;;;;;;;9.37;94.77;99744.25;10369508;28;20061;-80
2022/10/01 05:35:44;;;;;;;6.68;3.58;;;;;;;9.45;94.87;99740.81;10349707;28;20057;-83
2022/10/01 05:40:46;;;;;;;7.68;3.72;;;;;;;9.51;95.02;99746.06;10367873;28;20068;-83
2022/10/01 05:45:49;;;;;;;5.90;3.28;;;;;;;9.51;95.05;99748.69;10353012;28;20432;-81
2022/10/01 05:50:52;;;;;;;6.47;3.17;;;;;;;9.53;95.25;99749.53;10373002;28;20057;-81
2022/10/01 05:55:54;;;;;;;5.63;2.50;;;;;;;9.53;95.39;99747.81;10373431;28;20042;-80
2022/10/01 06:00:55;;;;;;;7.13;3.70;;;;;;;9.54;95.64;99735.63;10368993;28;20050;-82
2022/10/01 06:05:57;;;;;;;6.53;3.30;;;;;;;9.52;95.49;99745.22;10347877;28;20064;-82
2022/10/01 06:11:01;;;;;;;3.00;2.03;;;;;;;9.55;95.67;99748.69;10368125;28;20065;-85
2022/10/01 06:16:02;;;;;;;8.93;3.53;;;;;;;9.56;95.86;99741.72;10353191;28;20269;-81
2022/10/01 06:21:04;;;;;;;6.38;3.10;;;;;;;9.60;95.90;99745.25;10367267;28;20560;-82
2022/10/01 06:26:07;;;;;;;7.20;3.50;;;;;;;9.62;95.98;99743.50;10350804;28;20057;-80
2022/10/01 06:31:10;;;;;;;6.05;2.90;;;;;;;9.66;96.33;99742.66;10370102;28;20060;-81
2022/10/01 06:36:12;;;;;;;6.60;3.40;;;;;;;9.69;96.39;99743.53;10376700;28;20049;-81
2022/10/01 06:41:13;;;;;;;6.60;3.40;;;;;;;9.75;96.45;99739.19;10368041;28;20054;-83
2022/10/01 06:46:15;;;;;;;5.28;3.00;;;;;;;9.76;96.47;99741.81;10349443;28;20053;-82
2022/10/01 06:52:47;;;;;;;5.57;2.70;;;;;;;9.83;96.60;99755.78;10366267;28;20050;-83
2022/10/01 06:56:38;;;;;;;6.75;2.88;;;;;;;9.84;96.83;99747.94;10369205;28;20065;-84
2022/10/01 07:01:43;;;;;;;6.68;2.90;;;;;;;9.86;96.68;99740.09;10350253;28;20109;-83
2022/10/01 07:06:44;;;;;;;5.10;2.53;;;;;;;9.89;96.99;99753.19;10374358;28;20037;-81
2022/10/01 07:11:46;;;;;;;5.07;2.97;;;;;;;9.94;96.86;99748.84;10368823;28;20058;-82
2022/10/01 07:16:47;;;;;;;4.78;2.58;;;;;;;10.00;97.01;99750.63;10367733;28;20053;-81
2022/10/01 07:21:49;;;;;;;5.43;3.30;;;;;;;10.05;97.26;99760.19;10368381;28;20589;-83
2022/10/01 07:26:54;;;;;;;6.28;3.22;;;;;;;10.20;97.04;99766.34;10355221;28;20052;-82
2022/10/01 07:31:58;;;;;;;4.90;2.53;;;;;;;10.28;97.25;99775.06;10369551;28;20402;-83
2022/10/01 07:37:00;;;;;;;5.57;3.25;;;;;;;10.37;97.46;99775.16;10373810;28;20046;-82
2022/10/01 07:42:03;;;;;;;8.13;3.38;;;;;;;10.48;97.58;99769.03;10350014;28;20066;-82
2022/10/01 07:47:04;;;;;;;7.43;4.35;;;;;;;10.54;97.39;99769.06;10371831;28;20049;-82
2022/10/01 07:52:06;;;;;;;6.55;3.63;;;;;;;10.57;97.51;99769.94;10346153;28;20133;-82
2022/10/01 07:57:14;;;;;;;6.57;3.55;;;;;;;10.70;97.64;99778.66;10369273;28;20263;-83
2022/10/01 08:02:17;;;;;;;6.65;4.00;;;;;;;10.78;97.50;99794.38;10364992;28;20081;-82
2022/10/01 08:07:20;;;;;;;6.40;3.90;;;;;;;10.82;97.29;99800.50;10363632;28;20042;-82
2022/10/01 08:12:23;;;;;;;7.05;3.95;;;;;;;10.91;97.55;99797.88;10364395;28;20046;-80
2022/10/01 08:17:24;;;;;;;6.93;4.38;;;;;;;11.06;97.47;99795.22;10366418;28;20069;-81
2022/10/01 08:22:30;;;;;;;9.77;4.22;;;;;;;11.20;97.32;99799.59;10346668;28;20136;-81
2022/10/01 08:27:31;;;;;;;6.15;3.78;;;;;;;11.31;97.59;99805.69;10367390;28;20053;-82
2022/10/01 08:32:33;;;;;;;9.07;4.32;;;;;;;11.31;97.40;99821.44;10345839;28;20072;-82
2022/10/01 08:37:35;;;;;;;7.65;4.00;;;;;;;11.45;97.44;99821.41;10367535;28;20298;-83
2022/10/01 08:42:58;;;;;;;8.98;3.65;;;;;;;11.62;97.42;99813.47;10365979;28;20073;-81
2022/10/01 08:48:08;;;;;;;8.95;3.70;;;;;;;12.00;97.41;99828.25;10360533;28;20056;-82
2022/10/01 08:53:14;;;;;;;;;;;;;;;12.17;97.30;99833.44;10355365;28;20050;-81
2022/10/01 08:58:44;;;;;;;6.25;3.60;;;;;;;12.57;97.14;99835.84;10368780;28;19922;-81
2022/10/01 09:03:46;;;;;;;6.07;3.17;;;;;;;13.21;96.97;99844.13;10342375;28;20066;-82
2022/10/01 09:08:56;;;;;;;8.75;3.30;;;;;;;13.29;96.31;99846.69;10334044;28;20073;-83
2022/10/01 09:14:31;;;;;;;8.27;3.65;;;;;;;13.31;95.69;99850.19;10370697;28;20061;-82
2022/10/01 09:19:57;;;;;;;6.97;3.55;;;;;;;13.85;94.87;99853.16;10360287;28;20064;-82
2022/10/01 09:25:16;;;;;;;7.80;3.03;;;;;;;14.47;94.05;99853.28;10349300;28;20058;-82
2022/10/01 09:30:23;;;;;;;9.27;2.65;;;;;;;14.42;92.90;99864.75;10368636;28;20141;-82
2022/10/01 09:35:35;;;;;;;6.05;2.30;;;;;;;14.45;92.16;99870.84;10374650;28;20046;-82
2022/10/01 09:40:44;;;;;;;10.32;2.53;;;;;;;15.05;91.40;99869.13;10363580;28;20045;-81
2022/10/01 09:45:46;;;;;;;5.07;2.30;;;;;;;14.66;90.43;99876.75;10349735;28;20046;-81
2022/10/01 09:50:57;;;;;;;4.55;2.15;;;;;;;15.30;89.83;99876.66;10360089;28;20047;-79
2022/10/01 09:56:07;;;;;;;4.35;1.60;;;;;;;15.71;88.38;99890.88;10358070;28;20050;-79
2022/10/01 10:01:38;;;;;;;6.05;1.67;;;;;;;15.53;86.89;99889.44;10354504;28;20062;-80
2022/10/01 10:06:40;;;;;;;8.30;1.90;;;;;;;15.64;86.56;99899.78;10367649;28;20399;-79
2022/10/01 10:11:43;;;;;;;4.35;1.60;;;;;;;15.85;86.24;99898.56;10361651;28;20041;-84
2022/10/01 10:16:47;;;;;;;7.45;2.08;;;;;;;16.13;85.62;99921.81;10350218;28;20521;-80
2022/10/01 10:21:52;;;;;;;9.73;1.65;;;;;;;15.78;84.66;99921.56;10366067;28;20076;-82
2022/10/01 10:26:57;;;;;;;10.07;1.75;;;;;;;16.42;83.89;99934.41;10324035;28;20195;-79
2022/10/01 10:32:06;;;;;;;8.43;1.60;;;;;;;16.75;82.76;99930.22;10344310;28;20058;-80
2022/10/01 10:37:17;;;;;;;12.68;1.70;;;;;;;16.25;82.08;99947.97;10353023;28;20050;-79
2022/10/01 10:42:21;;;;;;;9.18;1.80;;;;;;;16.50;82.06;99928.97;10351749;28;20371;-80
2022/10/01 10:47:25;;;;;;;9.63;1.63;;;;;;;16.64;81.68;99937.50;10362569;28;20065;-80
2022/10/01 10:52:29;;;;;;;4.57;1.45;;;;;;;16.93;80.36;99936.91;10360623;28;20054;-79
2022/10/01 10:57:33;;;;;;;4.55;1.60;;;;;;;16.68;79.60;99933.88;10357190;28;20057;-79
2022/10/01 11:02:34;;;;;;;5.63;1.17;;;;;;;16.73;79.54;99942.56;10362546;28;20537;-79
2022/10/01 11:07:36;;;;;;;10.02;1.33;;;;;;;16.61;79.50;99941.06;10362111;28;20057;-79
2022/10/01 11:13:17;;;;;;;8.43;1.35;;;;;;;16.21;80.04;99935.72;10359728;28;20041;-80
2022/10/01 11:18:40;;;;;;;7.40;1.27;;;;;;;15.91;81.45;99924.84;10363441;28;20505;-81
2022/10/01 11:24:01;;;;;;;5.07;1.20;;;;;;;15.99;82.62;99920.31;10373325;28;20304;-81
2022/10/01 11:29:11;;;;;;;;;;;;;;;16.17;83.49;99923.47;10370532;28;20053;-80
2022/10/01 11:34:49;;;;;;;3.40;1.23;;;;;;;16.41;82.43;99928.28;10339864;28;20407;-79
2022/10/01 11:39:55;;;;;;;2.90;1.00;;;;;;;16.41;81.69;99933.56;10356080;28;20042;-78
2022/10/01 11:45:03;;;;;;;3.30;1.08;;;;;;;16.05;81.41;99941.31;10354282;28;20042;-79
2022/10/01 11:50:13;;;;;;;5.70;1.30;;;;;;;15.83;80.72;99946.09;10365210;28;20061;-79
2022/10/01 12:01:06;;;;;;;5.70;1.10;;;;;;;15.13;80.03;100000.84;10368678;28;20060;-82
2022/10/01 12:06:13;;;;;;;5.18;0.75;;;;;;;13.96;81.50;100017.09;10377465;28;20401;-82
2022/10/01 12:11:28;;;;;;;9.57;1.38;;;;;;;13.06;83.50;100023.81;10364702;28;20057;-80
2022/10/01 12:16:39;;;;;;;2.03;0.68;;;;;;;12.91;85.28;100025.66;10338596;28;20161;-80
2022/10/01 12:22:10;;;;;;;4.32;0.50;;;;;;;13.19;86.53;100040.41;10358164;28;20048;-83
2022/10/01 12:27:40;;;;;;;3.35;0.50;;;;;;;13.12;86.70;100042.22;10365292;28;20186;-80
2022/10/01 12:32:50;;;;;;;2.55;0.65;;;;;;;12.89;86.82;100043.16;10345829;28;20046;-81
2022/10/01 12:38:24;;;;;;;1.60;0.60;;;;;;;12.68;87.35;100043.25;10367444;28;20049;-83
2022/10/01 12:43:56;;;;;;;2.25;0.43;;;;;;;12.70;87.99;100054.63;10370944;28;20070;-84
2022/10/01 12:49:56;;;;;;;1.60;0.40;;;;;;;12.61;87.83;100065.16;10356664;28;20069;-84
2022/10/01 12:55:28;;;;;;;1.92;0.70;;;;;;;12.97;88.62;100077.31;10336056;28;20104;-82
2022/10/01 13:00:39;;;;;;;1.05;0.55;;;;;;;13.44;88.96;100088.50;10373729;28;20049;-83
2022/10/01 13:06:18;;;;;;;3.55;0.75;;;;;;;13.57;88.68;100081.41;10367810;28;20390;-86
2022/10/01 13:11:57;;;;;;;2.05;0.57;;;;;;;13.93;88.27;100087.28;10367412;28;20050;-86
2022/10/01 13:17:19;;;;;;;3.22;0.65;;;;;;;14.13;87.43;100077.47;10362949;28;20056;-85
2022/10/01 13:22:32;;;;;;;2.38;0.77;;;;;;;14.28;86.76;100079.09;10388920;28;20058;-82
2022/10/01 13:27:41;;;;;;;1.42;0.60;;;;;;;14.55;86.24;100082.34;10360277;28;20061;-82
2022/10/01 13:32:56;;;;;;;5.38;0.90;;;;;;;14.61;85.33;100098.13;10352633;28;20445;-82
2022/10/01 13:37:58;;;;;;;3.17;0.90;;;;;;;14.85;84.88;100106.66;10359269;28;20152;-83
2022/10/01 13:43:22;;;;;;;1.77;0.70;;;;;;;14.98;84.29;100112.63;10381319;28;20050;-83
2022/10/01 13:48:33;;;;;;;7.22;1.02;;;;;;;15.15;83.48;100115.09;10379676;28;20060;-82
2022/10/01 13:53:43;;;;;;;4.38;1.00;;;;;;;15.06;83.08;100121.34;10383783;28;20046;-80
2022/10/01 13:58:45;;;;;;;4.40;0.93;;;;;;;15.02;82.61;100131.03;10365359;28;20046;-81
2022/10/01 14:04:05;;;;;;;5.90;0.90;;;;;;;14.93;82.29;100140.84;10368994;28;20052;-83
2022/10/01 14:09:12;;;;;;;8.45;1.08;;;;;;;15.09;81.87;100152.09;10381134;28;20052;-83
2022/10/01 14:19:56;;;;;;;6.05;1.50;;;;;;;15.64;80.71;100172.50;10361481;28;20129;-82
2022/10/01 14:25:28;;;;;;;8.32;1.00;;;;;;;15.37;80.18;100179.88;10361822;28;20056;-79
2022/10/01 14:30:43;;;;;;;3.90;0.88;;;;;;;15.15;80.28;100189.78;10350135;28;20081;-80
2022/10/01 14:36:14;;;;;;;5.43;1.00;;;;;;;14.89;80.94;100205.88;10372467;28;20149;-80
2022/10/01 14:41:18;;;;;;;2.28;0.73;;;;;;;14.70;80.56;100214.84;10369464;28;20045;-80
2022/10/01 14:46:20;;;;;;;5.07;0.93;;;;;;;14.25;79.74;100221.31;10367080;28;20520;-80
2022/10/01 14:51:27;;;;;;;2.85;0.90;;;;;;;14.06;80.18;100222.31;10335877;28;20136;-80
2022/10/01 14:56:29;;;;;;;5.43;0.85;;;;;;;14.01;80.19;100237.28;10359835;28;20499;-80
2022/10/01 15:01:31;;;;;;;11.57;1.30;;;;;;;13.94;80.51;100247.81;10357795;28;20553;-79
2022/10/01 15:06:41;;;;;;;9.38;1.30;;;;;;;13.97;80.68;100258.34;10339211;28;20046;-79
2022/10/01 15:11:45;;;;;;;21.25;3.38;;;;;;;13.99;80.85;100258.34;10357250;28;20661;-79
2022/10/01 15:16:48;;;;;;;7.63;1.42;;;;;;;13.98;80.95;100269.75;10323889;28;20049;-78
2022/10/01 15:21:55;;;;;;;11.35;2.53;;;;;;;13.93;80.98;100282.94;10343504;28;20064;-79
2022/10/01 15:26:57;;;;;;;4.38;1.38;;;;;;;13.90;80.86;100282.97;10361455;28;20057;-78
2022/10/01 15:32:01;;;;;;;9.02;1.30;;;;;;;13.95;81.55;100291.69;10341710;28;20122;-79
2022/10/01 15:37:03;;;;;;;5.95;1.20;;;;;;;13.99;81.60;100310.09;10338554;28;20050;-78
2022/10/01 15:42:27;;;;;;;8.15;2.05;;;;;;;13.89;81.59;100311.91;10359327;28;20213;-78
2022/10/01 15:47:36;;;;;;;5.32;1.38;;;;;;;13.71;81.76;100313.72;10337316;28;20493;-78
2022/10/01 15:52:50;;;;;;;2.83;1.17;;;;;;;13.56;81.97;100325.16;10332983;28;20042;-78
2022/10/01 15:58:14;;;;;;;7.72;1.35;;;;;;;13.43;82.44;100329.56;10337926;28;20041;-78
2022/10/01 16:03:24;;;;;;;3.92;0.95;;;;;;;13.29;82.65;100325.19;10348388;28;20613;-78
2022/10/01 16:08:32;;;;;;;;;;;;;;;13.11;83.04;100353.25;10337210;28;20054;-78
2022/10/01 16:13:37;;;;;;;6.50;1.42;;;;;;;12.94;83.03;100361.13;10352614;28;19929;-78
2022/10/01 16:18:41;;;;;;;3.20;0.85;;;;;;;12.86;83.23;100366.38;10359864;28;20054;-78
2022/10/01 16:23:48;;;;;;;4.47;0.90;;;;;;;12.87;83.21;100381.25;10344229;28;20651;-77
2022/10/01 16:28:55;;;;;;;3.65;0.95;;;;;;;12.92;82.85;100383.91;10362133;28;20169;-77
2022/10/01 16:33:56;;;;;;;4.80;0.95;;;;;;;12.71;82.78;100390.88;10361382;28;20507;-78
2022/10/01 16:38:58;;;;;;;6.00;1.20;;;;;;;12.65;82.66;100416.25;10361788;28;20060;-78
2022/10/01 16:44:02;;;;;;;4.22;0.98;;;;;;;12.53;82.90;100412.69;10361699;28;20544;-77
2022/10/01 16:49:12;;;;;;;4.05;1.00;;;;;;;12.43;82.94;100421.44;10344135;28;20057;-78
2022/10/01 16:54:22;;;;;;;5.47;1.00;;;;;;;12.35;83.19;100424.03;10359258;28;20073;-78
2022/10/01 16:59:24;;;;;;;6.00;1.00;;;;;;;12.17;83.58;100439.69;10360933;28;20062;-78
2022/10/01 17:04:28;;;;;;;5.30;1.00;;;;;;;12.09;83.98;100454.53;10342146;28;20202;-77
2022/10/01 17:09:34;;;;;;;3.97;1.05;;;;;;;11.99;84.29;100462.38;10358501;28;20131;-78
2022/10/01 17:14:36;;;;;;;2.08;0.73;;;;;;;11.92;84.76;100471.03;10359931;28;20041;-77
2022/10/01 17:19:38;;;;;;;6.53;1.15;;;;;;;11.89;84.95;100486.75;10359948;28;20575;-78
2022/10/01 17:24:39;;;;;;;9.02;2.60;;;;;;;11.82;85.23;100495.44;10359470;28;20049;-78
2022/10/01 17:29:41;;;;;;;13.18;3.83;;;;;;;11.77;85.54;100502.38;10359857;28;20061;-77
2022/10/01 17:34:44;;;;;;;13.32;4.50;;;;;;;11.73;85.72;100506.75;10347690;28;20037;-77
2022/10/01 17:39:45;;;;;;;12.75;3.47;;;;;;;11.75;85.72;100514.63;10356892;28;20579;-77
2022/10/01 17:44:47;;;;;;;17.83;5.47;;;;;;;11.66;85.84;100520.66;10364687;28;20038;-77
2022/10/01 17:49:49;;;;;;;14.88;2.58;;;;;;;11.61;86.12;100532.88;10351809;28;20042;-77
2022/10/01 17:54:51;;;;;;;8.30;2.95;;;;;;;11.56;86.54;100545.03;10341770;28;20050;-77
2022/10/01 17:59:52;;;;;;;12.07;2.72;;;;;;;11.56;86.71;100547.66;10357997;28;20129;-77
2022/10/01 18:04:54;;;;;;;5.65;1.35;;;;;;;11.43;86.92;100557.19;10357318;28;20097;-76
2022/10/01 18:09:55;;;;;;;7.35;1.02;;;;;;;11.30;87.22;100564.03;10357420;28;20053;-78
2022/10/01 18:14:57;;;;;;;10.75;1.75;;;;;;;11.29;87.32;100576.25;10342590;28;20068;-78
2022/10/01 18:19:59;;;;;;;7.80;1.80;;;;;;;11.23;87.95;100596.25;10349245;28;20050;-77
2022/10/01 18:25:02;;;;;;;7.72;1.50;;;;;;;11.24;88.28;100590.16;10357217;28;20038;-77
2022/10/01 18:30:04;;;;;;;4.20;1.42;;;;;;;11.22;88.66;100615.50;10356671;28;20050;-77
2022/10/01 18:35:20;;;;;;;9.48;2.10;;;;;;;11.17;88.60;100614.53;10339151;28;20038;-77
2022/10/01 18:40:33;;;;;;;10.80;1.80;;;;;;;11.11;89.21;100624.09;10352687;28;20054;-77
2022/10/01 18:45:47;;;;;;;10.02;2.28;;;;;;;11.06;89.54;100638.00;10357294;28;20381;-77
2022/10/01 18:51:08;;;;;;;8.48;2.03;;;;;;;11.07;89.82;100640.63;10356384;28;20049;-77
2022/10/01 18:56:39;;;;;;;12.80;2.45;;;;;;;11.04;90.06;100637.97;10357149;28;20049;-77
2022/10/01 19:01:55;;;;;;;14.05;2.20;;;;;;;11.03;90.33;100648.44;10350279;28;20072;-77
2022/10/01 19:07:08;;;;;;;12.88;3.35;;;;;;;10.96;90.57;100644.88;10356626;28;20058;-77
2022/10/01 19:12:42;;;;;;;8.05;2.10;;;;;;;10.85;90.79;100649.06;10355051;28;20149;-77
2022/10/01 19:18:00;;;;;;;11.05;2.05;;;;;;;10.80;91.05;100662.13;10312809;28;20488;-76
2022/10/01 19:23:01;;;;;;;11.93;2.83;;;;;;;10.82;91.44;100664.75;10337733;28;20104;-77
2022/10/01 19:28:13;;;;;;;11.00;2.40;;;;;;;10.82;91.70;100664.75;10354578;28;20054;-77
2022/10/01 19:33:19;;;;;;;8.38;1.85;;;;;;;10.87;91.88;100670.91;10354107;28;20049;-77
2022/10/01 19:38:31;;;;;;;13.25;2.35;;;;;;;10.90;91.92;100673.59;10347485;28;20965;-77
2022/10/01 19:43:46;;;;;;;13.18;1.80;;;;;;;10.98;92.13;100687.69;10351554;28;20100;-77
2022/10/01 19:48:51;;;;;;;12.75;2.85;;;;;;;10.95;92.02;100690.25;10354097;28;20050;-77
2022/10/01 19:53:59;;;;;;;7.28;1.92;;;;;;;10.92;92.33;100695.47;10359670;28;20049;-77
2022/10/01 19:59:09;;;;;;;9.23;2.53;;;;;;;10.91;92.12;100704.16;10354761;28;20084;-77
2022/10/01 20:04:31;;;;;;;;;;;;;;;10.92;92.01;100719.03;10359853;28;20053;-77
2022/10/01 20:09:42;;;;;;;9.07;2.80;;;;;;;10.91;91.95;100725.13;10353695;28;19929;-76
2022/10/01 20:15:07;;;;;;;14.07;1.63;;;;;;;10.94;91.99;100743.50;10353440;28;20505;-76
2022/10/01 20:20:24;;;;;;;12.85;2.15;;;;;;;10.96;91.93;100747.06;10351621;28;20584;-76
2022/10/01 20:26:00;;;;;;;16.55;2.75;;;;;;;10.95;92.03;100756.63;10353890;28;20529;-77
2022/10/01 20:31:26;;;;;;;9.45;2.00;;;;;;;10.90;91.90;100765.25;10349748;28;20469;-76
2022/10/01 20:36:47;;;;;;;7.28;2.05;;;;;;;10.86;91.72;100760.88;10348404;28;20050;-77
2022/10/01 20:41:52;;;;;;;13.15;2.17;;;;;;;10.87;91.72;100773.06;10353534;28;20497;-77
2022/10/01 20:47:00;;;;;;;11.50;1.90;;;;;;;10.82;91.59;100785.25;10353384;28;20104;-76
2022/10/01 20:52:50;;;;;;;9.43;1.58;;;;;;;10.78;91.59;100779.94;10350788;28;20132;-76
2022/10/01 20:57:58;;;;;;;14.35;2.20;;;;;;;10.83;91.64;100781.78;10314500;28;20162;-76
2022/10/01 21:03:05;;;;;;;9.82;1.52;;;;;;;10.78;91.64;100785.19;10353919;28;20552;-76
2022/10/01 21:08:42;;;;;;;9.38;1.83;;;;;;;10.73;91.71;100781.63;10342849;28;20410;-76
2022/10/01 21:13:59;;;;;;;15.88;2.15;;;;;;;10.72;91.97;100797.28;10356748;28;20486;-76
2022/10/01 21:19:16;;;;;;;14.45;1.80;;;;;;;10.78;91.94;100826.22;10339559;28;20046;-80
2022/10/01 21:24:36;;;;;;;16.25;3.92;;;;;;;10.72;92.36;100798.19;10352419;28;20912;-81
2022/10/01 21:30:17;;;;;;;11.90;1.80;;;;;;;10.65;92.67;100801.56;10361226;28;20061;-79
2022/10/01 21:35:40;;;;;;;5.85;1.58;;;;;;;10.54;93.01;100803.13;10359918;28;20061;-78
2022/10/01 21:41:13;;;;;;;11.02;1.95;;;;;;;10.41;93.33;100820.34;10356341;28;20104;-79
2022/10/01 21:46:31;;;;;;;14.52;2.33;;;;;;;10.31;93.47;100811.38;10364853;28;20461;-80
2022/10/01 21:51:33;;;;;;;12.02;2.85;;;;;;;10.22;93.72;100813.84;10333565;28;20058;-82
2022/10/01 21:56:49;;;;;;;17.58;2.92;;;;;;;10.17;93.74;100825.97;10374201;28;20069;-83
2022/10/01 22:02:03;;;;;;;9.25;1.75;;;;;;;10.11;94.00;100836.31;10374140;28;20057;-81
2022/10/01 22:07:29;;;;;;;9.20;2.42;;;;;;;10.06;94.21;100839.72;10378938;28;20060;-81
2022/10/01 22:12:35;;;;;;;13.98;2.63;;;;;;;10.05;94.41;100843.16;10372995;28;20100;-81
2022/10/01 22:17:38;;;;;;;15.50;2.13;;;;;;;10.09;94.52;100847.63;10369138;28;20049;-82
2022/10/01 22:22:40;;;;;;;8.88;1.77;;;;;;;10.11;94.69;100849.38;10357017;28;20049;-81
2022/10/01 22:27:52;;;;;;;16.00;2.70;;;;;;;10.03;95.00;100842.25;10358673;28;20057;-82
2022/10/01 22:33:12;;;;;;;7.35;1.90;;;;;;;10.04;94.99;100849.28;10348790;28;20137;-84
2022/10/01 22:38:31;;;;;;;15.60;2.20;;;;;;;10.02;94.87;100857.94;10375103;28;20144;-81
2022/10/01 22:43:33;;;;;;;8.63;2.00;;;;;;;10.04;94.99;100856.22;10372312;28;20054;-81
2022/10/01 22:48:53;;;;;;;8.60;1.88;;;;;;;10.13;95.27;100866.00;10367782;28;20057;-82
2022/10/01 22:54:22;;;;;;;7.13;2.03;;;;;;;10.22;95.49;100866.16;10366430;28;20045;-82
2022/10/01 22:59:53;;;;;;;5.70;1.55;;;;;;;10.25;95.23;100855.75;10379685;28;20064;-82
2022/10/01 23:05:10;;;;;;;6.97;1.85;;;;;;;10.23;95.53;100873.19;10351647;28;20061;-82
2022/10/01 23:10:14;;;;;;;9.38;1.65;;;;;;;10.15;95.62;100877.34;10321690;28;20077;-85
2022/10/01 23:15:40;;;;;;;12.02;2.13;;;;;;;10.13;95.15;100881.69;10372056;28;20650;-84
2022/10/01 23:21:19;;;;;;;10.23;1.50;;;;;;;10.11;95.20;100884.28;10372920;28;20073;-82
2022/10/01 23:26:33;;;;;;;8.43;1.90;;;;;;;10.16;95.20;100897.44;10332123;28;20042;-81
2022/10/01 23:32:09;;;;;;;8.25;1.65;;;;;;;10.22;95.29;100903.72;10335055;28;20494;-78
2022/10/01 23:37:28;;;;;;;5.90;2.25;;;;;;;10.23;95.54;100920.28;10356231;28;20054;-80
2022/10/01 23:42:41;;;;;;;8.50;1.50;;;;;;;10.21;95.30;100908.91;10351083;28;20050;-81
2022/10/01 23:47:56;;;;;;;7.93;1.80;;;;;;;10.16;95.40;100905.31;10350635;28;20046;-81
2022/10/01 23:53:13;;;;;;;6.10;1.50;;;;;;;10.08;95.42;100926.06;10360112;28;20053;-80
2022/10/01 23:58:17;;;;;;;2.95;1.00;;;;;;;10.11;95.39;100933.13;10361502;28;20062;-82
